Time;durP1;ratioP1;P1;durP2;ratioP2;P2;SDS_P1;SDS_P2;PMS_P1;PMS_P2;Temp;Humidity;BMP_temperature;BMP_pressure;BME280_temperature;BME280_humidity;BME280_pressure;Samples;Min_cycle;Max_cycle;Signal;HPM_P1;HPM_P2
2023/01/23 00:29:06;;;;;;;3.45;2.00;;;;;;;18.54;29.61;103353.03;16124540;19;130576;-53
2023/01/23 00:34:28;;;;;;;4.00;2.38;;;;;;;18.53;29.77;103368.78;16126740;19;131849;-53
2023/01/23 00:39:49;;;;;;;4.70;2.50;;;;;;;18.49;29.53;103369.34;16126029;19;130165;-55
2023/01/23 00:45:11;;;;;;;2.72;2.08;;;;;;;18.46;29.34;103368.66;16125321;19;129449;-54
2023/01/23 00:50:33;;;;;;;3.83;2.35;;;;;;;18.43;29.73;103366.28;16124856;19;131530;-56
2023/01/23 00:55:55;;;;;;;3.55;2.10;;;;;;;18.40;29.50;103360.25;16127781;19;130300;-53
2023/01/23 01:01:16;;;;;;;4.07;2.60;;;;;;;18.36;29.31;103365.25;16122619;19;129308;-52
2023/01/23 01:06:38;;;;;;;3.45;2.20;;;;;;;18.34;29.50;103360.94;16125942;19;130148;-47
2023/01/23 01:12:00;;;;;;;5.25;2.53;;;;;;;18.29;29.68;103362.34;16122233;19;129690;-50
2023/01/23 01:17:22;;;;;;;5.68;2.55;;;;;;;18.28;29.24;103359.78;16122412;19;129835;-52
2023/01/23 01:22:43;;;;;;;4.22;2.75;;;;;;;18.25;29.22;103358.25;16124004;19;129355;-48
2023/01/23 01:28:06;;;;;;;5.45;2.67;;;;;;;18.23;29.63;103365.00;16123378;19;129425;-51
2023/01/23 01:33:28;;;;;;;4.38;2.70;;;;;;;18.21;29.59;103361.56;16120860;19;130713;-52
2023/01/23 01:38:50;;;;;;;5.10;2.78;;;;;;;18.19;29.63;103352.59;16121613;19;130280;-52
2023/01/23 01:44:18;;;;;;;3.25;2.28;;;;;;;18.18;29.25;103359.16;16125467;19;129223;-51
2023/01/23 01:49:40;;;;;;;4.97;2.20;;;;;;;18.15;29.71;103361.25;16119536;19;129957;-51
2023/01/23 01:55:04;;;;;;;3.38;2.08;;;;;;;18.13;29.68;103360.56;16120197;19;129321;-53
2023/01/23 02:00:25;;;;;;;3.75;1.85;;;;;;;18.11;29.83;103359.88;16118103;19;129442;-53
2023/01/23 02:05:48;;;;;;;3.95;2.25;;;;;;;18.10;29.40;103366.47;16122485;19;130559;-52
2023/01/23 02:11:10;;;;;;;3.60;1.92;;;;;;;18.08;29.57;103363.03;16122067;19;129652;-52
2023/01/23 02:16:39;;;;;;;3.47;2.00;;;;;;;18.07;29.47;103374.28;16119929;19;131514;-50
2023/01/23 02:22:22;;;;;;;3.30;1.85;;;;;;;18.06;29.49;103370.66;16113907;19;129362;-48
2023/01/23 02:27:44;;;;;;;2.90;1.80;;;;;;;18.03;29.48;103370.19;16124040;19;129944;-52
2023/01/23 02:33:26;;;;;;;3.33;1.85;;;;;;;18.01;29.45;103378.66;16123313;19;129918;-53
2023/01/23 02:39:12;;;;;;;1.95;1.40;;;;;;;18.00;29.79;103360.31;16123447;19;133790;-52
2023/01/23 02:44:34;;;;;;;3.83;1.88;;;;;;;17.96;29.52;103364.50;16119586;19;129608;-53
2023/01/23 02:49:55;;;;;;;2.70;2.15;;;;;;;17.93;29.89;103360.16;16122342;19;130473;-52
2023/01/23 02:55:17;;;;;;;4.15;2.75;;;;;;;17.92;29.88;103363.13;16119780;19;130494;-52
2023/01/23 03:00:42;;;;;;;2.50;1.60;;;;;;;17.91;29.64;103366.94;16118632;19;130866;-53
2023/01/23 03:06:04;;;;;;;3.17;2.03;;;;;;;17.89;29.87;103352.41;16118418;19;129426;-49
2023/01/23 03:11:26;;;;;;;2.40;1.60;;;;;;;17.87;29.58;103355.38;16132095;19;130647;-54
2023/01/23 03:16:52;;;;;;;3.00;1.52;;;;;;;17.87;29.93;103371.13;16140646;19;134803;-56
2023/01/23 03:22:14;;;;;;;3.05;2.00;;;;;;;17.83;29.99;103371.50;16137775;19;130983;-57
2023/01/23 03:27:36;;;;;;;3.92;2.08;;;;;;;17.81;29.79;103369.94;16133551;19;130443;-50
2023/01/23 03:32:58;;;;;;;4.07;2.28;;;;;;;17.78;29.76;103368.41;16129922;19;129701;-54
2023/01/23 03:38:19;;;;;;;2.97;2.35;;;;;;;17.76;29.86;103367.72;16133341;19;130287;-50
2023/01/23 03:43:41;;;;;;;5.13;2.60;;;;;;;17.73;29.73;103370.84;16130807;19;129695;-51
2023/01/23 03:49:03;;;;;;;6.00;2.75;;;;;;;17.70;29.31;103368.44;16131710;19;130158;-55
2023/01/23 03:54:25;;;;;;;3.97;2.65;;;;;;;17.68;29.39;103384.38;16131683;19;129363;-51
2023/01/23 03:59:47;;;;;;;3.72;2.05;;;;;;;17.67;29.71;103377.09;16124047;19;129932;-54
2023/01/23 04:05:09;;;;;;;3.28;2.30;;;;;;;17.67;29.69;103371.56;16124849;19;130606;-50
2023/01/23 04:10:31;;;;;;;2.75;1.75;;;;;;;17.65;29.45;103369.00;16125033;19;129239;-50
2023/01/23 04:15:53;;;;;;;2.40;1.75;;;;;;;17.64;29.69;103372.81;16129731;19;131114;-50
2023/01/23 04:21:15;;;;;;;4.28;1.92;;;;;;;17.63;29.81;103381.25;16127537;19;129494;-53
2023/01/23 04:26:37;;;;;;;2.38;1.60;;;;;;;17.62;29.58;103379.53;16127123;19;129714;-51
2023/01/23 04:31:58;;;;;;;3.08;1.80;;;;;;;17.60;29.68;103376.97;16123918;19;129402;-52
2023/01/23 04:37:20;;;;;;;3.53;1.70;;;;;;;17.59;29.50;103374.38;16125777;19;129799;-52
2023/01/23 04:42:42;;;;;;;4.47;2.08;;;;;;;17.57;29.87;103380.09;16125351;19;131739;-53
2023/01/23 04:48:04;;;;;;;3.70;1.95;;;;;;;17.56;29.64;103380.28;16125484;19;129631;-50
2023/01/23 04:53:25;;;;;;;2.30;1.48;;;;;;;17.54;29.54;103389.63;16126610;19;129205;-49
2023/01/23 04:58:48;;;;;;;2.20;1.55;;;;;;;17.52;29.72;103402.72;16125574;19;129347;-48
2023/01/23 05:04:10;;;;;;;3.95;2.30;;;;;;;17.48;29.83;103401.34;16123879;19;129026;-54
2023/01/23 05:09:32;;;;;;;4.00;2.58;;;;;;;17.46;29.71;103409.00;16123037;19;129278;-50
2023/01/23 05:14:53;;;;;;;3.85;2.65;;;;;;;17.44;29.84;103411.06;16122282;19;130750;-47
2023/01/23 05:20:15;;;;;;;2.67;1.95;;;;;;;17.42;29.87;103418.69;16122126;19;129780;-51
2023/01/23 05:25:38;;;;;;;4.00;2.42;;;;;;;17.41;29.91;103419.72;16125562;19;131654;-51
2023/01/23 05:30:59;;;;;;;3.58;2.13;;;;;;;17.42;29.88;103426.97;16118922;19;129563;-51
2023/01/23 05:36:21;;;;;;;4.80;2.53;;;;;;;17.41;29.51;103436.31;16119925;19;129411;-53
2023/01/23 05:41:43;;;;;;;3.28;2.10;;;;;;;17.40;29.89;103429.06;16121958;19;130669;-52
2023/01/23 05:47:05;;;;;;;2.92;2.08;;;;;;;17.37;29.83;103430.28;16121311;19;129568;-52
2023/01/23 05:52:27;;;;;;;4.13;2.30;;;;;;;17.37;29.57;103429.41;16119307;19;130226;-54
2023/01/23 05:57:48;;;;;;;2.97;2.00;;;;;;;17.36;29.79;103434.09;16121635;19;129653;-49
2023/01/23 06:03:10;;;;;;;4.13;2.00;;;;;;;17.36;29.75;103435.97;16120326;19;129872;-54
2023/01/23 06:08:32;;;;;;;4.05;2.45;;;;;;;17.35;29.72;103435.13;16121124;19;129846;-54
2023/01/23 06:13:54;;;;;;;3.15;2.03;;;;;;;17.34;29.53;103432.53;16119267;19;131221;-51
2023/01/23 06:19:16;;;;;;;3.60;2.40;;;;;;;17.33;29.88;103425.28;16120507;19;130366;-51
2023/01/23 06:24:37;;;;;;;2.90;1.88;;;;;;;17.30;29.67;103431.16;16116646;19;130496;-49
2023/01/23 06:29:59;;;;;;;3.80;2.42;;;;;;;17.30;29.33;103445.00;16117457;19;129859;-50
2023/01/23 06:35:21;;;;;;;3.10;2.38;;;;;;;17.27;29.65;103437.03;16119013;19;129496;-49
2023/01/23 06:40:43;;;;;;;4.43;2.63;;;;;;;17.26;29.58;103444.50;16121756;19;130678;-48
2023/01/23 06:46:09;;;;;;;3.33;2.33;;;;;;;17.26;29.57;103447.25;16134548;19;129374;-52
2023/01/23 06:51:32;;;;;;;3.53;2.53;;;;;;;17.24;29.87;103458.47;16132880;19;130334;-49
2023/01/23 06:56:53;;;;;;;5.38;2.22;;;;;;;17.24;29.48;103460.41;16134964;19;130854;-54
2023/01/23 07:02:15;;;;;;;4.10;2.30;;;;;;;17.25;29.78;103473.19;16133606;19;131198;-54
2023/01/23 07:07:37;;;;;;;4.00;2.15;;;;;;;17.24;29.56;103472.31;16133261;19;129216;-50
2023/01/23 07:12:59;;;;;;;3.72;2.13;;;;;;;17.23;29.59;103469.72;16132854;19;129333;-52
2023/01/23 07:18:21;;;;;;;4.45;1.90;;;;;;;17.24;29.51;103479.75;16135745;19;131443;-55
2023/01/23 07:23:43;;;;;;;3.47;2.22;;;;;;;17.22;29.94;103484.59;16133598;19;130042;-54
2023/01/23 07:29:07;;;;;;;4.57;2.22;;;;;;;17.19;29.72;103491.34;16132379;19;131515;-53
2023/01/23 07:34:29;;;;;;;3.58;2.10;;;;;;;17.18;29.89;103500.69;16133082;19;129786;-51
2023/01/23 07:39:51;;;;;;;3.08;2.25;;;;;;;17.16;29.59;103502.75;16134337;19;131755;-54
2023/01/23 07:45:13;;;;;;;3.33;2.35;;;;;;;17.17;29.72;103509.16;16133274;19;134141;-53
2023/01/23 07:50:36;;;;;;;3.10;2.20;;;;;;;17.14;29.85;103502.06;16130685;19;129225;-53
2023/01/23 07:55:58;;;;;;;3.40;2.40;;;;;;;17.13;29.63;103502.25;16129421;19;129807;-50
2023/01/23 08:01:20;;;;;;;4.38;3.03;;;;;;;17.10;29.63;103528.34;16129899;19;129256;-52
2023/01/23 08:06:42;;;;;;;2.97;2.20;;;;;;;17.09;29.53;103523.88;16128683;19;129447;-52
2023/01/23 08:12:04;;;;;;;3.38;2.20;;;;;;;17.08;29.65;103522.13;16131538;19;129165;-51
2023/01/23 08:17:26;;;;;;;4.15;2.20;;;;;;;17.04;29.93;103521.63;16132184;19;129005;-55
2023/01/23 08:22:48;;;;;;;4.35;2.20;;;;;;;17.03;29.87;103530.94;16130919;19;135308;-53
2023/01/23 08:28:09;;;;;;;3.78;2.28;;;;;;;17.01;30.04;103516.41;16130676;19;129720;-53
2023/01/23 08:33:33;;;;;;;3.90;2.10;;;;;;;17.02;29.87;103528.34;16127580;19;129396;-54
2023/01/23 08:38:55;;;;;;;3.70;2.22;;;;;;;17.01;29.98;103534.91;16129875;19;129074;-52
2023/01/23 08:44:16;;;;;;;2.92;2.25;;;;;;;16.97;29.97;103531.63;16128329;19;131656;-54
2023/01/23 08:49:38;;;;;;;3.65;1.92;;;;;;;16.99;30.01;103546.16;16126386;19;129403;-50
2023/01/23 08:55:00;;;;;;;3.72;1.65;;;;;;;17.16;29.65;103544.25;16128430;19;129570;-51
2023/01/23 09:00:22;;;;;;;2.30;1.50;;;;;;;17.42;29.81;103551.50;16125017;19;129500;-52
2023/01/23 09:05:43;;;;;;;2.63;1.50;;;;;;;17.66;29.55;103552.56;16124529;19;129363;-51
2023/01/23 09:11:07;;;;;;;2.28;1.33;;;;;;;17.84;29.16;103542.16;16118203;19;130851;-50
2023/01/23 09:16:29;;;;;;;2.70;1.52;;;;;;;17.96;29.27;103552.84;16126458;19;129930;-53
2023/01/23 09:21:55;;;;;;;1.90;1.40;;;;;;;17.99;28.76;103542.25;16125033;19;129982;-51
2023/01/23 09:27:18;;;;;;;2.03;1.60;;;;;;;17.96;29.02;103558.38;16122035;19;129766;-52
2023/01/23 09:32:39;;;;;;;3.13;1.70;;;;;;;17.91;29.02;103558.03;16123845;19;130443;-58
2023/01/23 09:38:05;;;;;;;3.17;1.95;;;;;;;17.84;29.03;103555.09;16121954;19;129295;-54
2023/01/23 09:43:41;;;;;;;3.17;1.80;;;;;;;17.79;29.27;103555.66;16124383;19;130199;-57
2023/01/23 09:49:25;;;;;;;1.60;1.50;;;;;;;17.72;29.08;103564.81;16124359;19;131432;-50
2023/01/23 09:54:52;;;;;;;2.72;1.73;;;;;;;17.66;29.03;103563.63;16121929;19;129336;-52
2023/01/23 10:00:22;;;;;;;2.05;1.60;;;;;;;17.61;29.23;103582.66;16123754;19;130083;-48
2023/01/23 10:06:06;;;;;;;1.70;1.42;;;;;;;17.54;29.51;103586.13;16124002;19;129346;-53
2023/01/23 10:11:36;;;;;;;2.53;1.88;;;;;;;17.47;29.23;103581.44;16124150;19;129481;-52
2023/01/23 10:17:22;;;;;;;3.20;1.83;;;;;;;17.43;29.37;103580.91;16123813;19;129882;-51
2023/01/23 10:23:04;;;;;;;3.38;2.45;;;;;;;17.36;29.36;103574.31;16124121;19;129429;-50
2023/01/23 10:28:38;;;;;;;3.50;2.13;;;;;;;17.33;29.66;103585.75;16112916;19;130303;-52
2023/01/23 10:34:09;;;;;;;2.20;1.70;;;;;;;17.28;29.61;103574.34;16117416;19;147034;-53
2023/01/23 10:39:54;;;;;;;2.88;2.17;;;;;;;17.22;29.66;103568.47;16119694;19;130751;-50
2023/01/23 10:45:19;;;;;;;2.53;2.08;;;;;;;17.18;29.44;103574.50;16119169;19;130256;-53
2023/01/23 10:50:42;;;;;;;2.67;2.05;;;;;;;17.16;29.55;103573.81;16118227;19;130152;-54
2023/01/23 10:56:04;;;;;;;3.28;2.05;;;;;;;17.12;29.89;103562.22;16117905;19;130053;-51
2023/01/23 11:01:30;;;;;;;2.50;1.92;;;;;;;17.10;29.54;103567.09;16120316;19;129765;-50
2023/01/23 11:07:03;;;;;;;2.90;2.00;;;;;;;17.09;29.68;103546.00;16119277;19;130453;-54
2023/01/23 11:12:28;;;;;;;2.58;1.80;;;;;;;17.04;29.74;103548.38;16117828;19;130507;-52
2023/01/23 11:17:52;;;;;;;3.28;2.28;;;;;;;17.02;30.02;103544.94;16121173;19;130515;-49
2023/01/23 11:23:16;;;;;;;4.00;2.60;;;;;;;16.99;29.74;103551.69;16117853;19;130543;-54
2023/01/23 11:28:49;;;;;;;3.25;2.38;;;;;;;16.99;29.77;103543.38;16116310;19;129483;-53
2023/01/23 11:34:13;;;;;;;3.08;2.50;;;;;;;16.99;30.01;103542.50;16133297;19;129397;-54
2023/01/23 11:39:48;;;;;;;2.20;1.88;;;;;;;17.16;29.72;103547.00;16130369;19;129642;-49
2023/01/23 11:45:29;;;;;;;2.17;1.90;;;;;;;17.42;29.58;103561.69;16131973;19;129340;-52
2023/01/23 11:51:11;;;;;;;3.10;1.90;;;;;;;17.67;29.12;103557.06;16131642;19;130029;-52
2023/01/23 11:56:52;;;;;;;2.72;1.80;;;;;;;17.84;28.97;103558.75;16128560;19;131138;-51
2023/01/23 12:02:45;;;;;;;2.45;1.90;;;;;;;17.94;28.74;103560.47;16128118;19;131163;-51
2023/01/23 12:08:55;;;;;;;2.17;1.98;;;;;;;17.93;28.94;103567.03;16129175;19;129559;-50
2023/01/23 12:14:32;;;;;;;2.72;2.17;;;;;;;17.89;28.74;103568.44;16127997;19;130410;-51
2023/01/23 12:20:23;;;;;;;2.80;2.42;;;;;;;17.80;29.18;103565.69;16131580;19;130174;-53
2023/01/23 12:26:05;;;;;;;2.88;2.40;;;;;;;17.76;29.36;103557.91;16128958;19;129215;-53
2023/01/23 12:31:50;;;;;;;2.83;2.08;;;;;;;17.69;29.00;103549.44;16128133;19;129588;-50
2023/01/23 12:37:34;;;;;;;2.38;1.95;;;;;;;17.63;29.21;103558.44;16126787;19;129187;-51
2023/01/23 12:43:02;;;;;;;3.67;2.50;;;;;;;17.57;29.49;103556.38;16125665;19;129789;-50
2023/01/23 12:48:57;;;;;;;3.50;2.55;;;;;;;17.49;29.24;103546.16;16125814;19;129428;-51
2023/01/23 12:54:30;;;;;;;7.07;3.83;;;;;;;17.43;29.42;103552.34;16127477;19;131022;-51
2023/01/23 13:00:00;;;;;;;3.90;3.22;;;;;;;17.36;29.40;103547.53;16127240;19;129516;-51
2023/01/23 13:05:38;;;;;;;4.55;3.55;;;;;;;17.32;29.67;103539.75;16126648;19;129449;-57
2023/01/23 13:16:49;;;;;;;5.32;3.60;;;;;;;17.17;29.67;103540.44;16123113;19;132083;-59
2023/01/23 13:22:24;;;;;;;4.43;3.60;;;;;;;17.14;29.84;103548.25;16124994;19;129781;-62
2023/01/23 13:27:59;;;;;;;5.22;3.28;;;;;;;17.09;30.07;103543.22;16127688;19;129691;-55
2023/01/23 13:33:27;;;;;;;4.55;3.95;;;;;;;17.03;29.88;103533.72;16123104;19;130822;-49
2023/01/23 13:38:59;;;;;;;4.35;3.28;;;;;;;17.01;30.04;103549.59;16127363;19;130398;-48
2023/01/23 13:44:25;;;;;;;4.97;4.28;;;;;;;16.97;29.90;103556.50;16117909;19;129515;-46
2023/01/23 13:50:17;;;;;;;4.25;3.58;;;;;;;16.95;29.98;103560.50;16116391;19;129976;-48
2023/01/23 14:07:50;;;;;;;4.03;3.53;;;;;;;16.85;29.79;103558.75;16109354;19;131256;-51
2023/01/23 14:13:26;;;;;;;3.42;3.10;;;;;;;16.82;29.86;103561.84;16107716;19;129405;-50
2023/01/23 14:19:05;;;;;;;5.33;3.77;;;;;;;16.86;29.96;103563.22;16104112;19;129596;-47
2023/01/23 14:24:46;;;;;;;3.80;2.42;;;;;;;17.04;29.83;103559.44;16107853;19;131941;-50
2023/01/23 14:30:17;;;;;;;4.00;2.75;;;;;;;17.26;29.80;103562.56;16108622;19;133713;-51
2023/01/23 14:35:41;;;;;;;4.50;2.85;;;;;;;17.43;30.04;103566.19;16107698;19;131235;-50
2023/01/23 14:41:06;;;;;;;4.00;2.78;;;;;;;17.63;29.83;103552.91;16110524;19;131253;-52
2023/01/23 14:46:39;;;;;;;3.95;2.70;;;;;;;17.73;29.94;103555.47;16110511;19;131909;-50
2023/01/23 14:52:03;;;;;;;4.68;2.47;;;;;;;17.72;29.44;103540.78;16120800;19;130044;-50
2023/01/23 14:57:26;;;;;;;3.42;2.55;;;;;;;17.70;29.46;103526.25;16114292;19;129540;-48
2023/01/23 15:02:53;;;;;;;4.03;2.80;;;;;;;17.64;29.88;103511.22;16122876;19;133389;-46
2023/01/23 15:08:31;;;;;;;5.65;2.30;;;;;;;17.59;29.50;103502.56;16135056;19;131109;-48
2023/01/23 15:14:00;;;;;;;3.88;2.50;;;;;;;17.51;29.94;103495.09;16133528;19;130850;-52
2023/01/23 15:19:23;;;;;;;3.20;2.20;;;;;;;17.47;29.68;103492.88;16124644;19;129951;-49
2023/01/23 15:24:46;;;;;;;4.10;2.20;;;;;;;17.40;29.91;103498.25;16113199;19;130812;-49
2023/01/23 15:30:27;;;;;;;4.47;2.20;;;;;;;17.36;29.85;103507.91;16104797;19;134743;-50
2023/01/23 15:35:49;;;;;;;4.20;2.63;;;;;;;17.29;30.07;103507.78;16110984;19;130455;-49
2023/01/23 15:41:11;;;;;;;2.50;2.13;;;;;;;17.23;30.22;103514.84;16120413;19;129903;-51
2023/01/23 15:46:33;;;;;;;6.10;2.33;;;;;;;17.18;30.29;103527.47;16119386;19;133952;-49
2023/01/23 15:51:57;;;;;;;3.85;2.03;;;;;;;17.13;29.84;103527.13;16126216;19;129918;-47
2023/01/23 15:57:19;;;;;;;2.80;2.15;;;;;;;17.07;30.14;103526.78;16118344;19;129847;-46
2023/01/23 16:02:41;;;;;;;2.72;2.22;;;;;;;17.02;30.02;103544.94;16129423;19;130662;-49
2023/01/23 16:08:21;;;;;;;3.13;2.47;;;;;;;16.96;30.03;103552.00;16131223;19;132014;-51
2023/01/23 16:13:43;;;;;;;5.57;3.90;;;;;;;16.87;29.92;103553.03;16114852;19;130258;-49
2023/01/23 16:19:05;;;;;;;4.88;3.83;;;;;;;16.76;29.98;103563.38;16120084;19;129319;-47
2023/01/23 16:24:28;;;;;;;7.82;3.75;;;;;;;16.71;30.00;103564.94;16124117;19;130916;-50
2023/01/23 16:29:50;;;;;;;4.45;3.50;;;;;;;16.68;29.70;103568.88;16126136;19;131665;-56
2023/01/23 16:35:13;;;;;;;4.20;3.45;;;;;;;16.69;29.72;103556.78;16125721;19;129733;-54
2023/01/23 16:40:35;;;;;;;4.70;2.90;;;;;;;16.69;30.04;103550.41;16123326;19;129630;-58
2023/01/23 16:45:57;;;;;;;4.88;3.50;;;;;;;16.70;29.67;103554.91;16128709;19;129591;-46
2023/01/23 16:51:23;;;;;;;10.25;3.80;;;;;;;16.70;29.79;103546.63;16121502;19;130289;-53
2023/01/23 16:56:49;;;;;;;6.05;2.95;;;;;;;16.67;29.69;103547.81;16124114;19;130197;-47
2023/01/23 17:02:29;;;;;;;7.70;3.42;;;;;;;16.69;29.77;103559.56;16123477;19;129384;-51
2023/01/23 17:07:51;;;;;;;6.88;3.53;;;;;;;16.66;29.71;103567.28;16125230;19;129954;-45
2023/01/23 17:13:15;;;;;;;4.32;3.30;;;;;;;16.69;29.52;103567.00;16124790;19;132354;-47
2023/01/23 17:18:37;;;;;;;4.45;3.40;;;;;;;16.69;29.94;103573.38;16121037;19;130585;-50
2023/01/23 17:23:59;;;;;;;6.20;2.67;;;;;;;16.69;30.04;103567.00;16126392;19;131474;-50
2023/01/23 17:29:21;;;;;;;4.95;3.00;;;;;;;16.68;29.57;103574.41;16120239;19;130439;-52
2023/01/23 17:34:43;;;;;;;4.55;2.58;;;;;;;16.68;29.76;103577.16;16120582;19;130909;-46
2023/01/23 17:40:13;;;;;;;3.30;2.38;;;;;;;16.85;29.88;103589.16;16120425;19;130472;-47
2023/01/23 17:45:35;;;;;;;7.72;2.17;;;;;;;17.26;29.65;103582.81;16120679;19;129337;-48
2023/01/23 17:50:57;;;;;;;5.13;2.00;;;;;;;17.78;29.08;103589.91;16120785;19;130720;-49
2023/01/23 17:56:19;;;;;;;6.85;2.10;;;;;;;18.33;28.94;103592.91;16109063;19;130163;-50
2023/01/23 18:01:41;;;;;;;2.60;1.90;;;;;;;18.85;28.88;103579.47;16115725;19;130866;-57
2023/01/23 18:07:03;;;;;;;6.25;1.98;;;;;;;19.28;28.32;103587.34;16120735;19;129227;-51
2023/01/23 18:12:45;;;;;;;3.08;2.08;;;;;;;19.66;28.10;103584.56;16119173;19;129230;-48
2023/01/23 18:18:33;;;;;;;3.20;2.30;;;;;;;19.94;27.94;103584.78;16115572;19;130413;-53
2023/01/23 18:23:55;;;;;;;4.00;1.90;;;;;;;19.97;28.20;103592.75;16115369;19;129726;-52
2023/01/23 18:29:32;;;;;;;3.42;1.80;;;;;;;19.91;28.19;103606.56;16111644;19;129380;-46
2023/01/23 18:35:12;;;;;;;3.30;2.10;;;;;;;19.74;28.18;103603.09;16116117;19;131867;-45
2023/01/23 18:41:08;;;;;;;3.20;1.90;;;;;;;19.52;28.59;103602.94;16114942;19;129398;-47
2023/01/23 18:46:30;;;;;;;5.80;1.90;;;;;;;19.34;29.08;103603.28;16117667;19;129806;-48
2023/01/23 18:52:18;;;;;;;2.03;1.85;;;;;;;19.23;29.35;103607.31;16118915;19;130747;-47
2023/01/23 18:58:02;;;;;;;2.50;1.92;;;;;;;19.37;29.39;103623.19;16113298;19;129733;-47
2023/01/23 19:03:37;;;;;;;2.80;1.70;;;;;;;19.64;28.82;103612.56;16119319;19;130557;-56
2023/01/23 19:08:59;;;;;;;3.73;1.63;;;;;;;19.89;28.81;103620.63;16117427;19;129393;-56
2023/01/23 19:14:49;;;;;;;3.03;1.77;;;;;;;20.17;28.79;103617.25;16114987;19;129449;-49
2023/01/23 19:20:35;;;;;;;3.80;1.70;;;;;;;20.44;28.63;103607.38;16113211;19;130175;-45
2023/01/23 19:25:57;;;;;;;6.28;2.22;;;;;;;20.62;28.17;103613.56;16109573;19;130684;-50
2023/01/23 19:31:22;;;;;;;5.75;1.88;;;;;;;20.78;28.32;103613.38;16107954;19;129477;-51
2023/01/23 19:36:44;;;;;;;7.88;1.90;;;;;;;20.96;27.99;103617.63;16111182;19;129648;-50
2023/01/23 19:42:12;;;;;;;8.23;1.98;;;;;;;21.16;28.09;103615.06;16116634;19;130376;-49
2023/01/23 19:47:34;;;;;;;5.28;1.85;;;;;;;21.32;27.54;103620.38;16113541;19;129324;-50
2023/01/23 19:52:57;;;;;;;3.97;1.80;;;;;;;21.48;27.39;103622.03;16125588;19;129425;-49
2023/01/23 19:58:19;;;;;;;10.45;2.15;;;;;;;21.50;27.65;103610.69;16127345;19;129595;-49
2023/01/23 20:03:40;;;;;;;10.70;1.92;;;;;;;21.39;27.41;103614.00;16125593;19;130680;-51
2023/01/23 20:09:02;;;;;;;5.97;2.30;;;;;;;21.22;27.79;103620.72;16126977;19;129438;-51
2023/01/23 20:14:24;;;;;;;9.20;2.60;;;;;;;21.01;28.05;103618.75;16128348;19;130506;-55
2023/01/23 20:19:46;;;;;;;7.28;1.90;;;;;;;20.83;28.02;103616.41;16127151;19;128964;-49
2023/01/23 20:25:14;;;;;;;5.95;1.98;;;;;;;20.74;28.40;103623.13;16130807;19;130754;-51
2023/01/23 20:30:35;;;;;;;2.00;1.52;;;;;;;20.78;28.18;103618.94;16126427;19;131497;-52
2023/01/23 20:35:58;;;;;;;3.95;1.83;;;;;;;20.97;28.38;103620.25;16125238;19;129763;-51
2023/01/23 20:41:20;;;;;;;5.45;2.00;;;;;;;21.16;27.96;103618.72;16124615;19;129401;-49
2023/01/23 20:46:42;;;;;;;3.38;1.90;;;;;;;21.37;28.34;103619.78;16123967;19;129577;-49
2023/01/23 21:03:25;;;;;;;3.65;1.55;;;;;;;21.48;28.02;103635.06;16124827;19;129384;-53
2023/01/23 21:08:47;;;;;;;8.65;2.17;;;;;;;21.41;28.25;103635.03;16123351;19;129591;-49
2023/01/23 21:14:08;;;;;;;4.68;1.83;;;;;;;21.33;28.73;103632.38;16126238;19;131441;-52
2023/01/23 21:19:31;;;;;;;5.22;2.10;;;;;;;21.20;28.59;103628.38;16124482;19;130911;-54
2023/01/23 21:24:53;;;;;;;9.32;2.10;;;;;;;21.10;28.97;103644.56;16123114;19;135461;-50
2023/01/23 21:30:15;;;;;;;7.53;2.08;;;;;;;20.99;29.36;103643.13;16099758;19;130885;-54
2023/01/23 21:35:37;;;;;;;7.78;2.22;;;;;;;20.88;29.29;103635.31;16119199;19;130164;-50
2023/01/23 21:40:59;;;;;;;7.10;2.10;;;;;;;20.75;29.42;103636.88;16121371;19;129828;-54
2023/01/23 21:46:21;;;;;;;4.32;1.90;;;;;;;20.64;29.77;103622.59;16123296;19;129490;-58
2023/01/23 21:51:43;;;;;;;4.57;2.00;;;;;;;20.49;29.99;103634.59;16113667;19;129242;-56
2023/01/23 21:57:05;;;;;;;9.75;2.33;;;;;;;20.34;29.96;103634.59;16123378;19;129719;-51
2023/01/23 22:02:27;;;;;;;2.72;2.15;;;;;;;20.20;29.79;103636.31;16120323;19;130106;-54
2023/01/23 22:07:49;;;;;;;8.13;2.33;;;;;;;20.07;30.20;103633.31;16119838;19;129286;-53
2023/01/23 22:13:11;;;;;;;3.88;2.08;;;;;;;19.95;29.93;103630.13;16121105;19;130167;-56
2023/01/23 22:18:32;;;;;;;2.42;1.90;;;;;;;19.83;30.37;103638.06;16119879;19;130127;-55
2023/01/23 22:23:54;;;;;;;3.78;2.05;;;;;;;19.73;30.48;103635.56;16114194;19;130211;-55
2023/01/23 22:29:16;;;;;;;5.18;1.80;;;;;;;19.61;30.33;103635.13;16120491;19;129714;-54
2023/01/23 22:34:38;;;;;;;5.40;1.73;;;;;;;19.50;30.37;103627.25;16119270;19;131061;-55
2023/01/23 22:40:00;;;;;;;1.98;1.70;;;;;;;19.40;30.32;103634.97;16118003;19;130668;-57
2023/01/23 22:45:21;;;;;;;7.63;2.25;;;;;;;19.28;30.35;103635.41;16114141;19;131330;-55
2023/01/23 22:50:44;;;;;;;3.75;2.00;;;;;;;19.18;30.38;103635.59;16118986;19;129571;-55
2023/01/23 22:56:07;;;;;;;2.88;2.00;;;;;;;19.10;30.29;103635.69;16114009;19;129486;-55
2023/01/23 23:01:28;;;;;;;3.22;2.10;;;;;;;19.02;30.10;103644.91;16113992;19;131704;-55
2023/01/23 23:06:50;;;;;;;3.63;2.05;;;;;;;18.94;30.25;103656.06;16112414;19;129512;-55
2023/01/23 23:12:12;;;;;;;3.10;1.98;;;;;;;18.86;30.06;103653.31;16109694;19;130730;-56
2023/01/23 23:17:34;;;;;;;2.30;1.70;;;;;;;18.80;30.54;103667.91;16111108;19;130726;-55
2023/01/23 23:22:56;;;;;;;3.35;2.20;;;;;;;18.72;30.24;103669.66;16112385;19;129560;-56
2023/01/23 23:28:18;;;;;;;2.15;1.90;;;;;;;18.64;30.11;103661.41;16127478;19;129960;-54
2023/01/23 23:33:40;;;;;;;2.17;1.95;;;;;;;18.57;30.43;103660.41;16124529;19;129812;-57
2023/01/23 23:39:01;;;;;;;1.98;1.73;;;;;;;18.52;30.18;103671.16;16130724;19;131295;-58
2023/01/23 23:44:23;;;;;;;2.20;2.00;;;;;;;18.45;30.29;103663.56;16128674;19;133012;-53
2023/01/23 23:49:45;;;;;;;3.78;2.05;;;;;;;18.41;30.21;103655.75;16128470;19;130392;-53
2023/01/23 23:55:07;;;;;;;2.20;1.98;;;;;;;18.33;30.43;103653.88;16135604;19;130458;-55
